Time;durP1;ratioP1;P1;durP2;ratioP2;P2;SDS_P1;SDS_P2;PMS_P1;PMS_P2;Temp;Humidity;BMP_temperature;BMP_pressure;BME280_temperature;BME280_humidity;BME280_pressure;Samples;Min_cycle;Max_cycle;Signal;HPM_P1;HPM_P2
2023/09/23 00:02:23;;;;;;;14.93;10.82;;;;;;;10.78;100.00;100440.44;4943428;29;20066;-95
2023/09/23 00:04:49;;;;;;;16.75;11.68;;;;;;;10.76;100.00;100447.06;4950668;29;20059;-95
2023/09/23 00:07:17;;;;;;;19.80;13.85;;;;;;;10.68;100.00;100434.03;4965212;29;20031;-95
2023/09/23 00:09:43;;;;;;;20.10;14.23;;;;;;;10.69;100.00;100438.53;4943807;29;20034;-95
2023/09/23 00:12:08;;;;;;;24.08;15.70;;;;;;;10.73;100.00;100448.19;4940970;29;20039;-94
2023/09/23 00:14:34;;;;;;;23.17;15.98;;;;;;;10.77;100.00;100444.19;4920259;29;20443;-95
2023/09/23 00:16:59;;;;;;;25.55;18.42;;;;;;;10.68;100.00;100458.69;4917827;29;20023;-96
2023/09/23 00:19:25;;;;;;;27.38;18.33;;;;;;;10.49;100.00;100453.91;4925886;29;20058;-95
2023/09/23 00:21:52;;;;;;;27.77;19.33;;;;;;;10.62;100.00;100461.94;4957350;29;20069;-95
2023/09/23 00:24:17;;;;;;;29.48;19.00;;;;;;;10.56;100.00;100459.72;4937320;29;20031;-95
2023/09/23 00:26:43;;;;;;;27.30;18.75;;;;;;;10.58;100.00;100466.81;4951206;29;20032;-95
2023/09/23 00:29:10;;;;;;;24.48;18.48;;;;;;;10.53;100.00;100447.19;4934295;29;20031;-96
2023/09/23 00:31:36;;;;;;;31.55;20.65;;;;;;;10.60;100.00;100459.31;4972232;28;20043;-96
2023/09/23 00:34:02;;;;;;;29.30;20.80;;;;;;;10.63;100.00;100456.34;4932109;29;20059;-95
2023/09/23 00:36:28;;;;;;;33.70;20.52;;;;;;;10.79;100.00;100453.16;4937094;29;20395;-95
2023/09/23 00:38:56;;;;;;;30.38;21.25;;;;;;;10.85;100.00;100460.84;4927872;29;20040;-96
2023/09/23 00:41:25;;;;;;;34.75;21.05;;;;;;;10.90;100.00;100465.88;4941036;29;20027;-96
2023/09/23 00:43:51;;;;;;;27.50;19.77;;;;;;;10.84;100.00;100471.94;4941441;28;20014;-96
2023/09/23 00:46:22;;;;;;;33.60;20.05;;;;;;;10.94;100.00;100472.00;4948515;28;20030;-95
2023/09/23 00:48:48;;;;;;;38.97;22.23;;;;;;;10.77;100.00;100474.31;4979787;28;20051;-96
2023/09/23 00:51:15;;;;;;;35.78;23.20;;;;;;;10.79;100.00;100471.44;4982666;28;20026;-96
2023/09/23 00:53:40;;;;;;;32.63;22.40;;;;;;;10.82;100.00;100468.44;4966611;28;20023;-96
2023/09/23 00:56:08;;;;;;;43.45;25.98;;;;;;;10.87;100.00;100476.25;4963463;28;20023;-95
2023/09/23 00:58:36;;;;;;;40.05;25.75;;;;;;;10.84;100.00;100474.66;4947603;28;20034;-96
2023/09/23 01:01:05;;;;;;;36.60;25.75;;;;;;;10.77;100.00;100479.81;4954621;29;20027;-77
2023/09/23 01:03:31;;;;;;;46.70;26.98;;;;;;;10.78;100.00;100480.66;4934764;29;20376;-77
2023/09/23 01:06:04;;;;;;;41.85;25.08;;;;;;;10.63;100.00;100469.16;4949136;29;20042;-76
2023/09/23 01:08:30;;;;;;;38.45;24.13;;;;;;;10.78;100.00;100488.88;4945819;28;20110;-76
2023/09/23 01:10:56;;;;;;;41.47;25.42;;;;;;;10.73;100.00;100481.06;4936620;29;20119;-76
2023/09/23 01:13:24;;;;;;;40.38;24.52;;;;;;;10.63;100.00;100486.44;4952560;29;20549;-76
2023/09/23 01:15:51;;;;;;;39.13;24.20;;;;;;;10.64;100.00;100488.19;4955351;28;20498;-77
2023/09/23 01:18:20;;;;;;;39.08;24.60;;;;;;;10.74;100.00;100487.38;4952019;28;20027;-76
2023/09/23 01:20:49;;;;;;;37.80;23.08;;;;;;;10.69;100.00;100479.59;4947557;29;20035;-77
2023/09/23 01:23:15;;;;;;;38.80;23.70;;;;;;;10.60;100.00;100489.44;4950329;28;20415;-76
2023/09/23 01:25:41;;;;;;;37.40;24.30;;;;;;;10.57;100.00;100488.84;4938683;29;20537;-76
2023/09/23 01:28:13;;;;;;;41.55;23.52;;;;;;;10.68;100.00;100494.28;4945509;28;20039;-76
2023/09/23 01:30:44;;;;;;;44.90;24.73;;;;;;;10.68;100.00;100505.22;4948817;29;20039;-76
2023/09/23 01:33:13;;;;;;;43.63;24.30;;;;;;;10.85;100.00;100503.78;4950044;29;20035;-76
2023/09/23 01:35:40;;;;;;;40.30;24.65;;;;;;;10.65;100.00;100509.06;4952158;28;20027;-76
2023/09/23 01:38:05;;;;;;;39.83;22.83;;;;;;;10.70;100.00;100513.31;4948687;28;20035;-76
2023/09/23 01:40:32;;;;;;;43.70;22.02;;;;;;;10.66;100.00;100512.72;4936800;29;20383;-76
2023/09/23 01:43:01;;;;;;;37.58;21.27;;;;;;;10.61;100.00;100520.44;4944669;29;20486;-76
2023/09/23 01:45:27;;;;;;;39.70;19.88;;;;;;;10.58;100.00;100521.56;4946140;28;20118;-76
2023/09/23 01:47:56;;;;;;;43.55;19.38;;;;;;;10.61;100.00;100523.19;4933864;29;20574;-76
2023/09/23 01:50:22;;;;;;;36.78;18.90;;;;;;;10.55;100.00;100526.44;4933663;29;20035;-76
2023/09/23 01:52:48;;;;;;;38.67;17.58;;;;;;;10.60;100.00;100516.81;4954266;29;21289;-76
2023/09/23 01:55:16;;;;;;;37.30;17.23;;;;;;;10.58;100.00;100513.34;4936191;29;20122;-76
2023/09/23 01:57:42;;;;;;;35.60;17.92;;;;;;;10.67;100.00;100528.13;4953493;28;20090;-76
2023/09/23 02:00:15;;;;;;;31.80;16.67;;;;;;;10.64;100.00;100520.16;4950903;28;20093;-76
2023/09/23 02:02:40;;;;;;;35.93;17.07;;;;;;;10.66;100.00;100523.66;4952734;28;20392;-77
2023/09/23 02:05:06;;;;;;;36.08;16.55;;;;;;;10.63;100.00;100527.50;4950086;29;20034;-76
2023/09/23 02:07:32;;;;;;;33.45;15.02;;;;;;;10.61;100.00;100520.44;4947870;28;20058;-76
2023/09/23 02:09:58;;;;;;;29.58;14.10;;;;;;;10.73;100.00;100521.28;4950832;28;20134;-76
2023/09/23 02:12:24;;;;;;;38.80;15.10;;;;;;;10.74;100.00;100526.63;4938653;29;20063;-76
2023/09/23 02:14:53;;;;;;;31.02;13.10;;;;;;;10.67;100.00;100536.34;4950652;29;20043;-76
2023/09/23 02:17:19;;;;;;;26.65;12.98;;;;;;;10.52;100.00;100538.50;4959693;28;20035;-76
2023/09/23 02:19:45;;;;;;;28.90;12.75;;;;;;;10.47;100.00;100527.94;4949030;28;20035;-76
2023/09/23 02:22:10;;;;;;;33.67;12.55;;;;;;;10.47;100.00;100544.34;4953993;28;20034;-76
2023/09/23 02:24:36;;;;;;;29.20;11.65;;;;;;;10.44;100.00;100532.81;4932091;29;20035;-76
2023/09/23 02:27:03;;;;;;;29.42;12.13;;;;;;;10.36;100.00;100535.31;4952713;28;20039;-77
2023/09/23 02:29:30;;;;;;;32.80;13.05;;;;;;;10.44;100.00;100536.41;4926493;29;20703;-77
2023/09/23 02:31:56;;;;;;;26.02;10.80;;;;;;;10.64;100.00;100536.59;4953072;28;20041;-76
2023/09/23 02:34:22;;;;;;;35.00;13.15;;;;;;;10.79;100.00;100542.63;4946951;29;20031;-76
2023/09/23 02:36:51;;;;;;;31.05;10.32;;;;;;;10.85;100.00;100561.28;4949016;28;20367;-76
2023/09/23 02:39:19;;;;;;;24.30;10.90;;;;;;;10.78;100.00;100568.28;4947608;29;20035;-77
2023/09/23 02:41:45;;;;;;;25.35;10.60;;;;;;;10.72;100.00;100571.53;4949450;28;20031;-76
2023/09/23 02:44:20;;;;;;;34.17;10.80;;;;;;;10.69;100.00;100569.94;4949156;28;20482;-76
2023/09/23 02:46:46;;;;;;;26.20;9.48;;;;;;;10.76;100.00;100575.78;4948948;29;20052;-76
2023/09/23 02:49:13;;;;;;;24.77;9.45;;;;;;;10.66;100.00;100572.94;4935129;29;20058;-76
2023/09/23 02:51:38;;;;;;;20.17;8.88;;;;;;;10.73;100.00;100579.63;4946665;29;20031;-76
2023/09/23 02:54:06;;;;;;;25.27;8.55;;;;;;;10.72;100.00;100575.13;4932517;29;20043;-77
2023/09/23 02:56:34;;;;;;;34.47;10.65;;;;;;;10.61;100.00;100583.41;4945199;28;20035;-77
2023/09/23 02:59:00;;;;;;;21.58;8.80;;;;;;;10.65;100.00;100582.16;4950827;29;20035;-77
2023/09/23 03:01:27;;;;;;;19.83;8.68;;;;;;;10.66;100.00;100586.63;4950666;29;20027;-77
2023/09/23 03:03:55;;;;;;;25.98;9.32;;;;;;;10.62;100.00;100583.25;4952698;28;20027;-77
2023/09/23 03:06:22;;;;;;;22.23;8.15;;;;;;;10.61;100.00;100586.16;4950598;28;20027;-77
2023/09/23 03:08:53;;;;;;;21.38;7.30;;;;;;;10.54;100.00;100585.78;4927722;29;20051;-77
2023/09/23 03:11:20;;;;;;;25.15;7.72;;;;;;;10.58;100.00;100589.16;4951187;29;20035;-77
2023/09/23 03:13:46;;;;;;;22.20;6.90;;;;;;;10.54;100.00;100593.97;4948876;29;20144;-77
2023/09/23 03:16:14;;;;;;;20.42;6.40;;;;;;;10.47;100.00;100590.88;4951938;28;20498;-77
2023/09/23 03:18:54;;;;;;;20.25;6.78;;;;;;;10.54;100.00;100604.94;4963484;28;20062;-77
2023/09/23 03:21:20;;;;;;;15.85;6.40;;;;;;;10.56;100.00;100604.81;4948124;29;20022;-77
2023/09/23 03:23:46;;;;;;;20.95;6.22;;;;;;;10.59;100.00;100607.28;4947745;29;20035;-76
2023/09/23 03:26:11;;;;;;;19.63;6.70;;;;;;;10.47;100.00;100603.72;4928433;29;20023;-77
2023/09/23 03:28:42;;;;;;;16.33;5.93;;;;;;;10.50;100.00;100598.00;4950550;28;20024;-77
2023/09/23 03:31:08;;;;;;;13.07;5.65;;;;;;;10.42;100.00;100584.94;4949748;28;20125;-77
2023/09/23 03:33:34;;;;;;;22.77;6.95;;;;;;;10.44;100.00;100598.50;4952343;29;20101;-77
2023/09/23 03:35:59;;;;;;;16.27;6.07;;;;;;;10.42;100.00;100601.34;4949371;28;20858;-77
2023/09/23 03:38:24;;;;;;;18.67;6.20;;;;;;;10.33;100.00;100593.91;4950917;28;20059;-76
2023/09/23 03:40:52;;;;;;;17.08;5.07;;;;;;;10.36;100.00;100604.59;4950075;29;20035;-77
2023/09/23 03:43:17;;;;;;;18.42;5.95;;;;;;;10.34;100.00;100605.72;4951304;29;20122;-77
2023/09/23 03:45:43;;;;;;;14.93;5.28;;;;;;;10.28;100.00;100599.72;4949559;28;20118;-78
2023/09/23 03:48:13;;;;;;;17.27;5.68;;;;;;;10.36;100.00;100620.16;4949761;28;20560;-77
2023/09/23 03:50:40;;;;;;;20.60;5.50;;;;;;;10.22;100.00;100615.78;4929354;28;20169;-77
2023/09/23 03:53:05;;;;;;;15.52;5.43;;;;;;;10.22;100.00;100619.38;4951539;28;20076;-76
2023/09/23 03:55:31;;;;;;;16.50;5.07;;;;;;;10.25;100.00;100619.13;4944024;28;20903;-77
2023/09/23 03:57:57;;;;;;;20.35;5.50;;;;;;;10.25;100.00;100618.28;4947610;28;20494;-77
2023/09/23 04:00:26;;;;;;;17.00;5.40;;;;;;;10.25;100.00;100616.41;4950331;29;20030;-77
2023/09/23 04:02:52;;;;;;;17.20;4.88;;;;;;;10.27;100.00;100608.06;4949429;28;20139;-77
2023/09/23 04:05:20;;;;;;;12.20;5.22;;;;;;;10.34;100.00;100624.88;4947454;28;20410;-77
2023/09/23 04:07:49;;;;;;;20.05;5.35;;;;;;;10.26;100.00;100622.72;4948455;29;20026;-77
2023/09/23 04:10:19;;;;;;;19.08;4.82;;;;;;;10.24;100.00;100624.72;4951844;28;20030;-77
2023/09/23 04:12:45;;;;;;;16.73;5.60;;;;;;;10.26;100.00;100631.84;4950308;28;20081;-77
2023/09/23 04:15:11;;;;;;;13.32;5.28;;;;;;;10.27;100.00;100629.97;4945909;28;20507;-77
2023/09/23 04:17:37;;;;;;;18.13;5.32;;;;;;;10.24;100.00;100632.94;4948326;29;20035;-77
2023/09/23 04:20:10;;;;;;;12.50;4.80;;;;;;;10.23;100.00;100634.81;4948943;29;20414;-77
2023/09/23 04:22:40;;;;;;;13.35;4.95;;;;;;;10.23;100.00;100644.88;4935628;29;20039;-77
2023/09/23 04:25:10;;;;;;;13.32;4.75;;;;;;;10.18;100.00;100647.13;4943320;28;20039;-77
2023/09/23 04:27:37;;;;;;;18.20;5.15;;;;;;;10.08;100.00;100649.72;4947221;28;20035;-77
2023/09/23 04:30:12;;;;;;;20.77;4.72;;;;;;;10.12;100.00;100643.88;4947998;28;20031;-77
2023/09/23 04:32:39;;;;;;;11.82;4.38;;;;;;;10.21;100.00;100647.72;4951823;28;20055;-77
2023/09/23 04:35:09;;;;;;;26.15;5.55;;;;;;;10.30;100.00;100652.47;4950814;28;20039;-77
2023/09/23 04:37:37;;;;;;;15.60;5.25;;;;;;;10.34;100.00;100664.06;4951868;28;20050;-77
2023/09/23 04:40:10;;;;;;;15.65;5.63;;;;;;;10.36;100.00;100664.78;4935499;29;20466;-77
2023/09/23 04:42:41;;;;;;;14.82;4.95;;;;;;;10.36;100.00;100661.19;4948846;28;20035;-76
2023/09/23 04:45:08;;;;;;;18.85;5.75;;;;;;;10.33;100.00;100666.91;4927459;29;20099;-77
2023/09/23 04:47:35;;;;;;;10.90;4.85;;;;;;;10.35;100.00;100675.91;4956283;28;20415;-76
2023/09/23 04:50:01;;;;;;;14.40;5.60;;;;;;;10.32;100.00;100668.78;4944914;29;20065;-77
2023/09/23 04:52:27;;;;;;;15.32;5.95;;;;;;;10.30;100.00;100676.22;4951136;29;20039;-77
2023/09/23 04:54:55;;;;;;;12.32;5.15;;;;;;;10.33;100.00;100664.19;4941223;28;20039;-77
2023/09/23 04:57:21;;;;;;;19.20;6.32;;;;;;;10.36;100.00;100667.53;4949904;28;20019;-77
2023/09/23 04:59:47;;;;;;;17.52;5.85;;;;;;;10.32;100.00;100676.13;4950947;28;20110;-77
2023/09/23 05:02:16;;;;;;;18.10;5.88;;;;;;;10.23;100.00;100672.22;4948741;28;20035;-77
2023/09/23 05:04:45;;;;;;;15.55;6.25;;;;;;;10.23;100.00;100684.06;4933421;29;20035;-77
2023/09/23 05:07:13;;;;;;;29.05;6.55;;;;;;;10.20;100.00;100683.41;4931788;29;20455;-77
2023/09/23 05:09:40;;;;;;;16.13;5.65;;;;;;;10.27;100.00;100684.69;4949920;28;20039;-77
2023/09/23 05:12:08;;;;;;;13.73;5.28;;;;;;;10.34;100.00;100696.03;4952379;28;20046;-76
2023/09/23 05:14:33;;;;;;;22.48;5.68;;;;;;;10.38;100.00;100712.09;4942635;29;20042;-77
2023/09/23 05:16:58;;;;;;;25.38;6.60;;;;;;;10.50;100.00;100712.09;4949216;28;20035;-77
2023/09/23 05:19:27;;;;;;;14.68;5.28;;;;;;;10.43;100.00;100712.59;4952448;28;20408;-76
2023/09/23 05:21:53;;;;;;;16.55;5.80;;;;;;;10.39;100.00;100722.03;4951044;29;20054;-78
2023/09/23 05:24:22;;;;;;;23.38;7.03;;;;;;;10.43;100.00;100737.22;4952806;28;20024;-77
2023/09/23 05:26:49;;;;;;;17.80;5.75;;;;;;;10.52;100.00;100740.22;4954199;28;20030;-77
2023/09/23 05:29:15;;;;;;;16.33;5.60;;;;;;;10.48;100.00;100740.47;4938101;29;20125;-77
2023/09/23 05:31:44;;;;;;;17.27;6.00;;;;;;;10.44;100.00;100746.28;4936634;28;20118;-77
2023/09/23 05:34:09;;;;;;;19.45;6.05;;;;;;;10.54;100.00;100757.38;4954791;28;20118;-78
2023/09/23 05:36:35;;;;;;;17.85;6.43;;;;;;;10.52;100.00;100759.38;4949882;28;20126;-79
2023/09/23 05:39:00;;;;;;;15.98;5.88;;;;;;;10.42;100.00;100759.25;4936888;29;20039;-77
2023/09/23 05:41:26;;;;;;;21.05;6.20;;;;;;;10.53;100.00;100762.00;4919332;29;20487;-77
2023/09/23 05:43:53;;;;;;;17.05;6.72;;;;;;;10.51;100.00;100766.72;4937787;28;20486;-78
2023/09/23 05:46:21;;;;;;;18.23;6.40;;;;;;;10.60;100.00;100771.44;4951838;28;20402;-77
2023/09/23 05:48:49;;;;;;;12.88;5.63;;;;;;;10.60;100.00;100779.66;4927737;29;20062;-77
2023/09/23 05:51:15;;;;;;;17.88;6.03;;;;;;;10.53;100.00;100772.94;4944924;29;20023;-77
2023/09/23 05:53:42;;;;;;;22.58;6.72;;;;;;;10.60;100.00;100781.53;4934673;29;20039;-78
2023/09/23 05:56:08;;;;;;;14.85;6.55;;;;;;;10.56;100.00;100783.66;4952394;29;20115;-77
2023/09/23 05:58:33;;;;;;;17.52;6.60;;;;;;;10.60;100.00;100790.59;4952725;28;20042;-77
2023/09/23 06:00:59;;;;;;;25.75;7.57;;;;;;;10.60;100.00;100796.06;4918575;29;20031;-78
2023/09/23 06:03:26;;;;;;;16.05;7.05;;;;;;;10.64;100.00;100793.97;4941303;29;20039;-77
2023/09/23 06:05:52;;;;;;;10.68;6.70;;;;;;;10.62;100.00;100802.28;4949148;28;20086;-77
2023/09/23 06:08:17;;;;;;;18.70;6.40;;;;;;;10.53;100.00;100800.31;4940906;28;20043;-77
2023/09/23 06:10:43;;;;;;;18.85;6.22;;;;;;;10.60;100.00;100803.44;4951014;28;20063;-79
2023/09/23 06:13:12;;;;;;;18.88;7.30;;;;;;;10.62;100.00;100807.78;4939067;28;20022;-80
2023/09/23 06:15:37;;;;;;;17.65;6.93;;;;;;;10.61;100.00;100817.00;4952797;28;20505;-79
2023/09/23 06:18:03;;;;;;;22.45;8.10;;;;;;;10.71;100.00;100818.97;4953921;28;20043;-79
2023/09/23 06:20:29;;;;;;;15.48;6.40;;;;;;;10.73;100.00;100817.88;4956104;28;20041;-80
2023/09/23 06:22:54;;;;;;;20.05;6.47;;;;;;;10.92;100.00;100824.59;4953275;28;20038;-79
2023/09/23 06:25:20;;;;;;;19.75;6.63;;;;;;;10.77;100.00;100830.34;4954512;28;20031;-79
2023/09/23 06:27:46;;;;;;;16.98;6.95;;;;;;;10.96;100.00;100835.19;4954689;28;20528;-79
2023/09/23 06:30:15;;;;;;;10.90;6.40;;;;;;;10.95;100.00;100838.94;4936371;28;20057;-78
2023/09/23 06:32:41;;;;;;;17.88;6.93;;;;;;;11.06;100.00;100845.41;4945059;28;20530;-79
2023/09/23 06:35:07;;;;;;;18.38;7.30;;;;;;;10.96;100.00;100848.88;4925304;29;20039;-78
2023/09/23 06:37:34;;;;;;;25.20;8.57;;;;;;;11.09;100.00;100862.47;4951344;28;20186;-79
2023/09/23 06:39:59;;;;;;;11.50;6.32;;;;;;;11.15;100.00;100863.81;4913979;29;21213;-78
2023/09/23 06:42:25;;;;;;;17.15;5.82;;;;;;;11.26;100.00;100863.81;4919875;29;20062;-79
2023/09/23 06:44:51;;;;;;;14.73;7.07;;;;;;;11.35;100.00;100865.81;4930004;29;20118;-78
2023/09/23 06:47:16;;;;;;;24.75;7.05;;;;;;;11.56;100.00;100873.28;4937864;28;20092;-78
2023/09/23 06:49:42;;;;;;;18.05;6.85;;;;;;;11.40;100.00;100866.28;4918646;29;20479;-78
2023/09/23 06:52:07;;;;;;;23.55;7.53;;;;;;;11.35;100.00;100868.56;4946749;29;20039;-94
2023/09/23 06:54:34;;;;;;;15.02;5.63;;;;;;;11.59;100.00;100886.69;4960409;28;20046;-91
2023/09/23 06:57:00;;;;;;;18.42;8.00;;;;;;;11.58;100.00;100884.97;4941158;29;20716;-94
2023/09/23 06:59:26;;;;;;;19.25;6.97;;;;;;;11.61;100.00;100894.81;4928157;29;20027;-90
2023/09/23 07:01:51;;;;;;;23.17;6.97;;;;;;;11.60;100.00;100891.19;4954805;28;20036;-92
2023/09/23 07:04:18;;;;;;;21.48;6.40;;;;;;;11.76;100.00;100890.78;4954653;28;20027;-86
2023/09/23 07:06:46;;;;;;;12.52;6.40;;;;;;;11.91;100.00;100896.88;4947049;28;20042;-85
2023/09/23 07:09:13;;;;;;;14.88;7.22;;;;;;;12.02;100.00;100906.94;4947101;29;21440;-87
2023/09/23 07:11:38;;;;;;;17.88;7.00;;;;;;;11.97;100.00;100903.72;4927324;29;20046;-87
2023/09/23 07:14:06;;;;;;;16.70;7.07;;;;;;;12.03;100.00;100911.44;4951030;28;20479;-87
2023/09/23 07:16:35;;;;;;;15.57;7.10;;;;;;;12.14;100.00;100917.75;4953922;28;20031;-86
2023/09/23 07:19:01;;;;;;;15.05;6.68;;;;;;;12.26;100.00;100921.34;4950818;28;20027;-87
2023/09/23 07:21:27;;;;;;;14.30;7.32;;;;;;;12.49;100.00;100924.88;4952723;29;20089;-88
2023/09/23 07:23:52;;;;;;;17.42;6.65;;;;;;;12.67;100.00;100932.50;4949166;29;20506;-88
2023/09/23 07:26:21;;;;;;;19.63;8.38;;;;;;;12.40;100.00;100931.16;4949591;28;20054;-89
2023/09/23 07:28:50;;;;;;;17.45;6.32;;;;;;;12.20;100.00;100931.97;4947070;28;20047;-87
2023/09/23 07:31:16;;;;;;;20.25;7.95;;;;;;;12.16;100.00;100947.84;4954092;28;20100;-87
2023/09/23 07:33:43;;;;;;;15.05;6.93;;;;;;;12.17;100.00;100940.47;4931515;29;20059;-85
2023/09/23 07:36:12;;;;;;;13.77;8.15;;;;;;;12.53;100.00;100943.81;4941282;28;20034;-87
2023/09/23 07:38:39;;;;;;;19.48;8.20;;;;;;;12.39;100.00;100948.63;4927379;29;20042;-90
2023/09/23 07:41:04;;;;;;;17.83;8.82;;;;;;;12.56;100.00;100951.78;4952297;28;20789;-90
2023/09/23 07:43:31;;;;;;;18.00;8.50;;;;;;;12.57;100.00;100957.16;4951059;29;20039;-90
2023/09/23 07:45:57;;;;;;;12.65;8.80;;;;;;;12.61;100.00;100961.41;4942524;29;20039;-90
2023/09/23 07:48:22;;;;;;;18.95;10.10;;;;;;;12.83;100.00;100962.28;4947105;29;20592;-90
2023/09/23 07:50:48;;;;;;;15.23;9.15;;;;;;;12.97;100.00;100952.81;4960349;28;20063;-91
2023/09/23 07:53:14;;;;;;;16.75;8.73;;;;;;;13.22;100.00;100976.28;4947951;29;20047;-91
2023/09/23 07:55:40;;;;;;;17.98;8.80;;;;;;;13.07;100.00;100975.75;4944688;28;20042;-90
2023/09/23 07:58:06;;;;;;;26.70;7.90;;;;;;;13.27;100.00;100973.13;4932053;29;20474;-90
2023/09/23 08:00:31;;;;;;;11.75;7.72;;;;;;;13.29;100.00;100980.22;4962927;28;20031;-78
2023/09/23 08:02:57;;;;;;;14.75;7.30;;;;;;;13.31;100.00;100983.69;4930280;29;20561;-78
2023/09/23 08:05:24;;;;;;;15.40;6.97;;;;;;;12.91;100.00;100989.09;4954147;28;20027;-78
2023/09/23 08:07:52;;;;;;;13.00;6.65;;;;;;;13.04;100.00;100993.38;4953049;28;20051;-78
2023/09/23 08:10:18;;;;;;;18.45;7.05;;;;;;;13.35;100.00;100990.72;4932114;29;20023;-78
2023/09/23 08:12:47;;;;;;;12.88;5.90;;;;;;;13.95;100.00;100996.34;4950826;28;20456;-78
2023/09/23 08:15:12;;;;;;;17.33;6.35;;;;;;;14.02;100.00;101001.25;4949792;28;20051;-78
2023/09/23 08:17:39;;;;;;;14.48;6.18;;;;;;;13.59;100.00;101003.28;4951647;28;20368;-78
2023/09/23 08:20:20;;;;;;;11.60;5.50;;;;;;;14.27;100.00;101010.91;4953629;28;20031;-78
2023/09/23 08:22:47;;;;;;;14.63;6.13;;;;;;;14.39;100.00;101011.66;4943344;29;20058;-78
2023/09/23 08:25:17;;;;;;;8.73;4.43;;;;;;;15.10;100.00;101011.38;4952054;28;20027;-78
2023/09/23 08:27:43;;;;;;;39.72;5.45;;;;;;;14.71;100.00;101014.19;4935717;29;20051;-78
2023/09/23 08:30:12;;;;;;;12.57;4.53;;;;;;;14.86;100.00;101023.75;4950149;28;20031;-78
2023/09/23 08:32:38;;;;;;;10.57;5.10;;;;;;;14.66;100.00;101024.78;4948082;28;20122;-78
2023/09/23 08:35:05;;;;;;;6.80;4.50;;;;;;;14.71;100.00;101033.47;4950272;28;20027;-78
2023/09/23 08:37:31;;;;;;;11.55;4.97;;;;;;;15.17;100.00;101037.38;4930895;29;20130;-78
2023/09/23 08:39:57;;;;;;;9.73;4.85;;;;;;;15.09;100.00;101040.00;4946367;29;20042;-78
2023/09/23 08:42:24;;;;;;;7.95;4.10;;;;;;;15.35;100.00;101039.38;4918451;29;20042;-79
2023/09/23 08:44:50;;;;;;;9.45;4.45;;;;;;;15.38;100.00;101047.34;4932371;28;20495;-78
2023/09/23 08:47:20;;;;;;;7.82;3.90;;;;;;;15.31;100.00;101044.31;4947374;28;20098;-78
2023/09/23 08:49:49;;;;;;;15.65;4.45;;;;;;;14.51;100.00;101060.97;4931404;29;22346;-78
2023/09/23 08:52:18;;;;;;;12.40;4.75;;;;;;;14.59;100.00;101062.13;4950544;28;20033;-79
2023/09/23 08:54:49;;;;;;;12.40;4.78;;;;;;;14.67;100.00;101070.59;4950329;28;20035;-78
2023/09/23 08:57:16;;;;;;;13.55;4.22;;;;;;;14.58;100.00;101082.47;4942637;29;20039;-78
2023/09/23 08:59:43;;;;;;;11.32;5.55;;;;;;;15.18;100.00;101076.84;4949229;28;20372;-78
2023/09/23 09:02:10;;;;;;;12.15;4.22;;;;;;;15.11;100.00;101081.22;4952080;28;20027;-79
2023/09/23 09:04:36;;;;;;;7.43;3.55;;;;;;;15.35;100.00;101075.25;4952482;28;20173;-78
2023/09/23 09:07:01;;;;;;;8.07;3.53;;;;;;;15.30;100.00;101085.84;4939046;28;20035;-78
2023/09/23 09:09:28;;;;;;;11.93;3.75;;;;;;;15.92;100.00;101072.50;4950915;28;20031;-79
2023/09/23 09:11:54;;;;;;;8.20;3.35;;;;;;;16.05;100.00;101069.41;4935554;29;20487;-78
2023/09/23 09:14:22;;;;;;;10.05;4.10;;;;;;;15.30;100.00;101067.41;4946660;28;20043;-78
2023/09/23 09:16:48;;;;;;;11.82;3.85;;;;;;;15.61;100.00;101078.25;4957364;28;20034;-78
2023/09/23 09:19:14;;;;;;;11.02;3.67;;;;;;;15.36;100.00;101079.75;4949598;29;20039;-78
2023/09/23 09:21:41;;;;;;;7.70;4.47;;;;;;;15.46;100.00;101088.00;4952623;28;20435;-78
2023/09/23 09:24:07;;;;;;;13.18;3.90;;;;;;;15.41;100.00;101091.19;4945021;28;20054;-78
2023/09/23 09:26:33;;;;;;;10.05;4.15;;;;;;;15.11;100.00;101095.00;4918390;29;20031;-78
2023/09/23 09:28:58;;;;;;;9.90;3.92;;;;;;;15.33;100.00;101091.97;4944649;29;20054;-77
2023/09/23 09:31:33;;;;;;;11.93;3.70;;;;;;;15.57;100.00;101099.75;4947956;28;20032;-77
2023/09/23 09:34:11;;;;;;;17.90;3.88;;;;;;;15.27;100.00;101108.22;4952108;28;20036;-77
2023/09/23 09:36:39;;;;;;;25.00;4.53;;;;;;;15.12;100.00;101100.38;4946313;29;20110;-77
2023/09/23 09:39:07;;;;;;;9.52;3.58;;;;;;;15.50;100.00;101106.03;4950226;28;20066;-77
2023/09/23 09:41:54;;;;;;;7.85;3.40;;;;;;;15.75;100.00;101098.97;4953885;28;20035;-77
2023/09/23 09:44:22;;;;;;;9.80;3.03;;;;;;;15.99;100.00;101112.31;4947124;28;20027;-77
2023/09/23 09:46:48;;;;;;;17.85;3.42;;;;;;;15.38;100.00;101105.28;4936450;29;20542;-77
2023/09/23 09:49:16;;;;;;;16.58;4.13;;;;;;;15.00;100.00;101113.44;4952352;28;20379;-77
2023/09/23 09:51:43;;;;;;;26.33;3.20;;;;;;;14.87;100.00;101118.34;4945046;28;20505;-77
2023/09/23 09:54:11;;;;;;;13.30;4.15;;;;;;;14.67;100.00;101121.06;4949363;29;20512;-77
2023/09/23 09:56:38;;;;;;;9.77;3.10;;;;;;;14.99;100.00;101124.63;4952705;28;20038;-77
2023/09/23 09:59:04;;;;;;;13.32;3.55;;;;;;;14.75;100.00;101125.00;4949552;29;20101;-77
2023/09/23 10:01:30;;;;;;;10.70;3.08;;;;;;;14.90;100.00;101123.56;4935079;28;20058;-77
2023/09/23 10:03:56;;;;;;;7.55;2.63;;;;;;;14.76;100.00;101126.75;4930251;29;20470;-78
2023/09/23 10:06:22;;;;;;;9.10;3.17;;;;;;;14.88;100.00;101122.84;4948010;28;20039;-77
2023/09/23 10:08:49;;;;;;;11.32;2.78;;;;;;;14.56;100.00;101129.44;4952139;28;20034;-77
2023/09/23 10:11:16;;;;;;;8.52;3.83;;;;;;;14.70;100.00;101133.69;4933869;28;20042;-77
2023/09/23 10:13:42;;;;;;;10.82;2.40;;;;;;;14.66;100.00;101140.53;4946120;29;20510;-77
2023/09/23 10:16:13;;;;;;;9.73;2.80;;;;;;;14.73;100.00;101138.06;4947614;28;20027;-76
2023/09/23 10:18:41;;;;;;;6.18;2.42;;;;;;;14.70;100.00;101130.94;4947575;29;20027;-77
2023/09/23 10:21:08;;;;;;;11.93;2.67;;;;;;;14.67;100.00;101139.50;4951389;28;20039;-77
2023/09/23 10:23:39;;;;;;;5.10;2.78;;;;;;;14.86;100.00;101134.03;4951707;29;20027;-76
2023/09/23 10:26:15;;;;;;;9.90;2.97;;;;;;;14.56;100.00;101147.84;4933656;29;20039;-77
2023/09/23 10:28:41;;;;;;;11.20;2.60;;;;;;;14.62;100.00;101153.69;4930398;29;20458;-77
2023/09/23 10:31:07;;;;;;;7.85;2.33;;;;;;;14.64;100.00;101150.78;4951610;28;20569;-78
2023/09/23 10:33:35;;;;;;;5.78;1.83;;;;;;;14.72;100.00;101156.47;4942533;29;20050;-77
2023/09/23 10:36:05;;;;;;;9.60;1.90;;;;;;;14.74;100.00;101159.97;4953288;28;20039;-77
2023/09/23 10:38:35;;;;;;;9.23;2.20;;;;;;;14.89;100.00;101152.19;4947687;29;20035;-78
2023/09/23 10:41:02;;;;;;;12.93;2.40;;;;;;;15.19;100.00;101151.19;4945837;28;20487;-77
2023/09/23 10:43:28;;;;;;;6.75;2.30;;;;;;;15.27;100.00;101163.41;4944174;28;20043;-77
2023/09/23 10:45:56;;;;;;;11.07;2.50;;;;;;;15.46;100.00;101168.03;4944571;28;20042;-77
2023/09/23 10:48:22;;;;;;;4.78;1.70;;;;;;;15.33;100.00;101174.72;4935479;28;20077;-78
2023/09/23 10:50:48;;;;;;;8.80;2.10;;;;;;;15.34;100.00;101176.44;4945575;28;20476;-78
2023/09/23 10:53:14;;;;;;;5.82;1.90;;;;;;;15.24;100.00;101176.44;4952940;28;20042;-77
2023/09/23 10:55:40;;;;;;;10.85;2.25;;;;;;;15.71;100.00;101188.63;4951681;28;20027;-78
2023/09/23 10:58:10;;;;;;;11.80;3.00;;;;;;;15.68;100.00;101184.28;4954329;28;20533;-78
2023/09/23 11:00:40;;;;;;;11.02;2.08;;;;;;;15.76;100.00;101183.59;4951465;28;20392;-77
2023/09/23 11:03:10;;;;;;;6.15;1.85;;;;;;;15.66;100.00;101178.06;4947677;29;20031;-78
2023/09/23 11:05:43;;;;;;;10.75;2.00;;;;;;;15.88;100.00;101179.63;4966130;28;20023;-78
2023/09/23 11:08:11;;;;;;;3.80;1.25;;;;;;;15.63;100.00;101184.72;4955310;28;20035;-78
2023/09/23 11:10:38;;;;;;;12.95;1.65;;;;;;;15.70;100.00;101182.25;4949573;28;20053;-78